sensor_id;sensor_type;location;lat;lon;timestamp;temperature;humidity
83770;DHT22;73763;48.936;9.300;2024-01-06T00:00:43;4.70;97.50
83770;DHT22;73763;48.936;9.300;2024-01-06T00:03:09;4.70;97.60
83770;DHT22;73763;48.936;9.300;2024-01-06T00:05:35;4.60;97.70
83770;DHT22;73763;48.936;9.300;2024-01-06T00:08:00;4.60;97.80
83770;DHT22;73763;48.936;9.300;2024-01-06T00:10:25;4.60;97.90
83770;DHT22;73763;48.936;9.300;2024-01-06T00:12:51;4.60;97.90
83770;DHT22;73763;48.936;9.300;2024-01-06T00:15:16;4.60;98.00
83770;DHT22;73763;48.936;9.300;2024-01-06T00:17:42;4.60;98.10
83770;DHT22;73763;48.936;9.300;2024-01-06T00:20:08;4.60;98.00
83770;DHT22;73763;48.936;9.300;2024-01-06T00:22:33;4.60;98.00
83770;DHT22;73763;48.936;9.300;2024-01-06T00:24:59;4.60;98.00
83770;DHT22;73763;48.936;9.300;2024-01-06T00:27:24;4.60;98.00
83770;DHT22;73763;48.936;9.300;2024-01-06T00:29:50;4.60;98.00
83770;DHT22;73763;48.936;9.300;2024-01-06T00:32:15;4.60;97.90
83770;DHT22;73763;48.936;9.300;2024-01-06T00:34:41;4.60;97.90
83770;DHT22;73763;48.936;9.300;2024-01-06T00:37:06;4.50;98.10
83770;DHT22;73763;48.936;9.300;2024-01-06T00:39:32;4.50;98.10
83770;DHT22;73763;48.936;9.300;2024-01-06T00:41:57;4.50;98.10
83770;DHT22;73763;48.936;9.300;2024-01-06T00:44:23;4.50;98.10
83770;DHT22;73763;48.936;9.300;2024-01-06T00:46:48;4.50;98.10
83770;DHT22;73763;48.936;9.300;2024-01-06T00:49:14;4.50;98.10
83770;DHT22;73763;48.936;9.300;2024-01-06T00:51:39;4.40;98.10
83770;DHT22;73763;48.936;9.300;2024-01-06T00:54:05;4.40;98.10
83770;DHT22;73763;48.936;9.300;2024-01-06T00:56:30;4.40;98.00
83770;DHT22;73763;48.936;9.300;2024-01-06T00:58:56;4.40;98.10
83770;DHT22;73763;48.936;9.300;2024-01-06T01:01:21;4.30;98.10
83770;DHT22;73763;48.936;9.300;2024-01-06T01:03:47;4.30;98.20
83770;DHT22;73763;48.936;9.300;2024-01-06T01:06:12;4.30;98.20
83770;DHT22;73763;48.936;9.300;2024-01-06T01:08:38;4.20;98.50
83770;DHT22;73763;48.936;9.300;2024-01-06T01:11:04;4.20;98.30
83770;DHT22;73763;48.936;9.300;2024-01-06T01:13:30;4.20;98.70
83770;DHT22;73763;48.936;9.300;2024-01-06T01:15:55;4.10;98.50
83770;DHT22;73763;48.936;9.300;2024-01-06T01:18:21;4.10;98.60
83770;DHT22;73763;48.936;9.300;2024-01-06T01:20:47;4.10;98.60
83770;DHT22;73763;48.936;9.300;2024-01-06T01:23:12;4.20;98.70
83770;DHT22;73763;48.936;9.300;2024-01-06T01:25:38;4.10;98.60
83770;DHT22;73763;48.936;9.300;2024-01-06T01:28:03;4.20;98.60
83770;DHT22;73763;48.936;9.300;2024-01-06T01:30:29;4.20;98.60
83770;DHT22;73763;48.936;9.300;2024-01-06T01:32:55;4.20;98.80
83770;DHT22;73763;48.936;9.300;2024-01-06T01:35:20;4.20;98.50
83770;DHT22;73763;48.936;9.300;2024-01-06T01:37:46;4.20;98.50
83770;DHT22;73763;48.936;9.300;2024-01-06T01:40:11;4.10;98.50
83770;DHT22;73763;48.936;9.300;2024-01-06T01:42:37;4.10;98.60
83770;DHT22;73763;48.936;9.300;2024-01-06T01:45:03;4.00;98.60
83770;DHT22;73763;48.936;9.300;2024-01-06T01:47:29;4.00;98.70
83770;DHT22;73763;48.936;9.300;2024-01-06T01:49:55;4.00;98.70
83770;DHT22;73763;48.936;9.300;2024-01-06T01:52:20;4.10;98.70
83770;DHT22;73763;48.936;9.300;2024-01-06T01:54:46;4.10;98.70
83770;DHT22;73763;48.936;9.300;2024-01-06T01:57:13;4.10;98.70
83770;DHT22;73763;48.936;9.300;2024-01-06T01:59:40;4.10;98.60
83770;DHT22;73763;48.936;9.300;2024-01-06T02:02:06;4.20;98.60
83770;DHT22;73763;48.936;9.300;2024-01-06T02:04:32;4.20;98.40
83770;DHT22;73763;48.936;9.300;2024-01-06T02:06:58;4.30;98.30
83770;DHT22;73763;48.936;9.300;2024-01-06T02:09:23;4.30;98.10
83770;DHT22;73763;48.936;9.300;2024-01-06T02:11:49;4.40;97.90
83770;DHT22;73763;48.936;9.300;2024-01-06T02:14:14;4.50;97.70
83770;DHT22;73763;48.936;9.300;2024-01-06T02:16:40;4.40;97.70
83770;DHT22;73763;48.936;9.300;2024-01-06T02:19:07;4.40;97.60
83770;DHT22;73763;48.936;9.300;2024-01-06T02:21:35;4.30;97.70
83770;DHT22;73763;48.936;9.300;2024-01-06T02:24:04;4.20;97.80
83770;DHT22;73763;48.936;9.300;2024-01-06T02:26:30;4.10;97.90
83770;DHT22;73763;48.936;9.300;2024-01-06T02:28:55;4.10;98.10
83770;DHT22;73763;48.936;9.300;2024-01-06T02:31:21;4.00;98.20
83770;DHT22;73763;48.936;9.300;2024-01-06T02:33:46;4.00;98.30
83770;DHT22;73763;48.936;9.300;2024-01-06T02:36:12;4.10;98.30
83770;DHT22;73763;48.936;9.300;2024-01-06T02:38:37;4.00;98.20
83770;DHT22;73763;48.936;9.300;2024-01-06T02:41:03;4.10;98.20
83770;DHT22;73763;48.936;9.300;2024-01-06T02:43:28;4.10;98.20
83770;DHT22;73763;48.936;9.300;2024-01-06T02:45:54;4.10;98.10
83770;DHT22;73763;48.936;9.300;2024-01-06T02:48:19;4.20;97.90
83770;DHT22;73763;48.936;9.300;2024-01-06T02:50:45;4.20;97.80
83770;DHT22;73763;48.936;9.300;2024-01-06T02:53:11;4.30;97.60
83770;DHT22;73763;48.936;9.300;2024-01-06T02:55:36;4.30;97.40
83770;DHT22;73763;48.936;9.300;2024-01-06T02:58:02;4.30;97.40
83770;DHT22;73763;48.936;9.300;2024-01-06T03:00:28;4.40;97.30
83770;DHT22;73763;48.936;9.300;2024-01-06T03:02:53;4.40;97.30
83770;DHT22;73763;48.936;9.300;2024-01-06T03:05:19;4.40;97.30
83770;DHT22;73763;48.936;9.300;2024-01-06T03:07:44;4.40;97.20
83770;DHT22;73763;48.936;9.300;2024-01-06T03:10:10;4.40;97.10
83770;DHT22;73763;48.936;9.300;2024-01-06T03:12:35;4.40;97.00
83770;DHT22;73763;48.936;9.300;2024-01-06T03:15:01;4.40;97.00
83770;DHT22;73763;48.936;9.300;2024-01-06T03:17:26;4.40;96.80
83770;DHT22;73763;48.936;9.300;2024-01-06T03:19:52;4.40;96.90
83770;DHT22;73763;48.936;9.300;2024-01-06T03:22:17;4.40;96.70
83770;DHT22;73763;48.936;9.300;2024-01-06T03:24:43;4.50;96.50
83770;DHT22;73763;48.936;9.300;2024-01-06T03:27:08;4.50;96.50
83770;DHT22;73763;48.936;9.300;2024-01-06T03:29:34;4.40;96.40
83770;DHT22;73763;48.936;9.300;2024-01-06T03:31:59;4.40;96.40
83770;DHT22;73763;48.936;9.300;2024-01-06T03:34:25;4.40;96.30
83770;DHT22;73763;48.936;9.300;2024-01-06T03:36:50;4.30;96.40
83770;DHT22;73763;48.936;9.300;2024-01-06T03:39:16;4.30;96.50
83770;DHT22;73763;48.936;9.300;2024-01-06T03:41:41;4.30;96.60
83770;DHT22;73763;48.936;9.300;2024-01-06T03:44:07;4.20;96.60
83770;DHT22;73763;48.936;9.300;2024-01-06T03:46:35;4.10;96.70
83770;DHT22;73763;48.936;9.300;2024-01-06T03:49:01;4.00;96.70
83770;DHT22;73763;48.936;9.300;2024-01-06T03:51:27;4.10;96.80
83770;DHT22;73763;48.936;9.300;2024-01-06T03:53:52;4.10;96.80
83770;DHT22;73763;48.936;9.300;2024-01-06T03:56:18;4.10;96.70
83770;DHT22;73763;48.936;9.300;2024-01-06T03:58:43;4.10;96.60
83770;DHT22;73763;48.936;9.300;2024-01-06T04:01:09;4.10;96.60
83770;DHT22;73763;48.936;9.300;2024-01-06T04:03:35;4.10;96.50
83770;DHT22;73763;48.936;9.300;2024-01-06T04:06:01;4.10;96.60
83770;DHT22;73763;48.936;9.300;2024-01-06T04:08:26;4.00;97.00
83770;DHT22;73763;48.936;9.300;2024-01-06T04:10:52;4.00;96.70
83770;DHT22;73763;48.936;9.300;2024-01-06T04:13:18;4.00;96.70
83770;DHT22;73763;48.936;9.300;2024-01-06T04:15:43;4.00;96.70
83770;DHT22;73763;48.936;9.300;2024-01-06T04:18:09;4.00;96.70
83770;DHT22;73763;48.936;9.300;2024-01-06T04:20:34;4.00;96.70
83770;DHT22;73763;48.936;9.300;2024-01-06T04:23:00;4.00;96.70
83770;DHT22;73763;48.936;9.300;2024-01-06T04:25:25;3.90;96.70
83770;DHT22;73763;48.936;9.300;2024-01-06T04:27:51;3.90;96.80
83770;DHT22;73763;48.936;9.300;2024-01-06T04:30:17;3.90;96.90
83770;DHT22;73763;48.936;9.300;2024-01-06T04:32:43;3.90;96.90
83770;DHT22;73763;48.936;9.300;2024-01-06T04:35:09;3.90;96.90
83770;DHT22;73763;48.936;9.300;2024-01-06T04:37:35;3.90;96.80
83770;DHT22;73763;48.936;9.300;2024-01-06T04:40:00;3.90;96.90
83770;DHT22;73763;48.936;9.300;2024-01-06T04:42:26;3.90;96.90
83770;DHT22;73763;48.936;9.300;2024-01-06T04:44:52;3.90;97.00
83770;DHT22;73763;48.936;9.300;2024-01-06T04:47:18;3.90;97.00
83770;DHT22;73763;48.936;9.300;2024-01-06T04:49:44;3.90;97.00
83770;DHT22;73763;48.936;9.300;2024-01-06T04:52:10;3.90;97.10
83770;DHT22;73763;48.936;9.300;2024-01-06T04:54:35;3.90;97.10
83770;DHT22;73763;48.936;9.300;2024-01-06T04:57:01;3.90;97.20
83770;DHT22;73763;48.936;9.300;2024-01-06T04:59:27;3.90;97.20
83770;DHT22;73763;48.936;9.300;2024-01-06T05:01:53;4.00;97.20
83770;DHT22;73763;48.936;9.300;2024-01-06T05:04:19;3.90;97.20
83770;DHT22;73763;48.936;9.300;2024-01-06T05:06:44;3.90;97.30
83770;DHT22;73763;48.936;9.300;2024-01-06T05:09:10;3.80;97.30
83770;DHT22;73763;48.936;9.300;2024-01-06T05:11:35;3.80;97.40
83770;DHT22;73763;48.936;9.300;2024-01-06T05:14:01;3.80;97.50
83770;DHT22;73763;48.936;9.300;2024-01-06T05:16:26;3.80;97.60
83770;DHT22;73763;48.936;9.300;2024-01-06T05:18:52;3.80;97.60
83770;DHT22;73763;48.936;9.300;2024-01-06T05:21:17;3.80;97.60
83770;DHT22;73763;48.936;9.300;2024-01-06T05:23:43;3.80;97.60
83770;DHT22;73763;48.936;9.300;2024-01-06T05:26:08;3.80;97.50
83770;DHT22;73763;48.936;9.300;2024-01-06T05:28:34;3.80;97.60
83770;DHT22;73763;48.936;9.300;2024-01-06T05:30:59;3.90;97.50
83770;DHT22;73763;48.936;9.300;2024-01-06T05:33:25;3.90;97.40
83770;DHT22;73763;48.936;9.300;2024-01-06T05:35:50;3.90;97.40
83770;DHT22;73763;48.936;9.300;2024-01-06T05:38:16;3.90;97.40
83770;DHT22;73763;48.936;9.300;2024-01-06T05:40:41;3.90;97.30
83770;DHT22;73763;48.936;9.300;2024-01-06T05:43:07;3.90;97.30
83770;DHT22;73763;48.936;9.300;2024-01-06T05:45:32;3.90;97.20
83770;DHT22;73763;48.936;9.300;2024-01-06T05:47:58;3.90;97.30
83770;DHT22;73763;48.936;9.300;2024-01-06T05:50:23;3.90;97.30
83770;DHT22;73763;48.936;9.300;2024-01-06T05:52:49;3.80;97.30
83770;DHT22;73763;48.936;9.300;2024-01-06T05:55:15;3.80;97.30
83770;DHT22;73763;48.936;9.300;2024-01-06T05:57:41;3.80;97.40
83770;DHT22;73763;48.936;9.300;2024-01-06T06:00:08;3.70;97.40
83770;DHT22;73763;48.936;9.300;2024-01-06T06:02:34;3.70;97.50
83770;DHT22;73763;48.936;9.300;2024-01-06T06:04:59;3.70;97.60
83770;DHT22;73763;48.936;9.300;2024-01-06T06:07:25;3.70;97.70
83770;DHT22;73763;48.936;9.300;2024-01-06T06:09:50;3.60;97.70
83770;DHT22;73763;48.936;9.300;2024-01-06T06:12:16;3.60;97.80
83770;DHT22;73763;48.936;9.300;2024-01-06T06:14:42;3.60;97.80
83770;DHT22;73763;48.936;9.300;2024-01-06T06:17:07;3.60;97.80
83770;DHT22;73763;48.936;9.300;2024-01-06T06:19:33;3.50;97.90
83770;DHT22;73763;48.936;9.300;2024-01-06T06:21:58;3.50;97.90
83770;DHT22;73763;48.936;9.300;2024-01-06T06:24:24;3.50;97.90
83770;DHT22;73763;48.936;9.300;2024-01-06T06:26:49;3.40;98.00
83770;DHT22;73763;48.936;9.300;2024-01-06T06:29:15;3.40;98.10
83770;DHT22;73763;48.936;9.300;2024-01-06T06:31:41;3.30;98.20
83770;DHT22;73763;48.936;9.300;2024-01-06T06:34:06;3.30;98.30
83770;DHT22;73763;48.936;9.300;2024-01-06T06:36:32;3.30;98.30
83770;DHT22;73763;48.936;9.300;2024-01-06T06:38:57;3.40;98.30
83770;DHT22;73763;48.936;9.300;2024-01-06T06:41:23;3.40;98.30
83770;DHT22;73763;48.936;9.300;2024-01-06T06:43:49;3.40;98.30
83770;DHT22;73763;48.936;9.300;2024-01-06T06:46:14;3.50;98.30
83770;DHT22;73763;48.936;9.300;2024-01-06T06:48:40;3.50;98.20
83770;DHT22;73763;48.936;9.300;2024-01-06T06:51:05;3.50;98.10
83770;DHT22;73763;48.936;9.300;2024-01-06T06:53:31;3.50;98.10
83770;DHT22;73763;48.936;9.300;2024-01-06T06:55:56;3.50;98.10
83770;DHT22;73763;48.936;9.300;2024-01-06T06:58:22;3.50;98.10
83770;DHT22;73763;48.936;9.300;2024-01-06T07:00:47;3.50;98.10
83770;DHT22;73763;48.936;9.300;2024-01-06T07:03:13;3.50;98.10
83770;DHT22;73763;48.936;9.300;2024-01-06T07:05:38;3.50;98.10
83770;DHT22;73763;48.936;9.300;2024-01-06T07:08:04;3.50;98.10
83770;DHT22;73763;48.936;9.300;2024-01-06T07:10:29;3.60;98.10
83770;DHT22;73763;48.936;9.300;2024-01-06T07:12:55;3.60;98.00
83770;DHT22;73763;48.936;9.300;2024-01-06T07:15:21;3.70;98.00
83770;DHT22;73763;48.936;9.300;2024-01-06T07:17:46;3.70;97.80
83770;DHT22;73763;48.936;9.300;2024-01-06T07:20:12;3.70;97.70
83770;DHT22;73763;48.936;9.300;2024-01-06T07:22:37;3.80;97.60
83770;DHT22;73763;48.936;9.300;2024-01-06T07:25:03;3.80;97.50
83770;DHT22;73763;48.936;9.300;2024-01-06T07:27:28;3.80;97.40
83770;DHT22;73763;48.936;9.300;2024-01-06T07:29:54;3.80;97.50
83770;DHT22;73763;48.936;9.300;2024-01-06T07:32:19;3.90;97.40
83770;DHT22;73763;48.936;9.300;2024-01-06T07:34:45;3.80;97.30
83770;DHT22;73763;48.936;9.300;2024-01-06T07:37:10;4.00;97.10
83770;DHT22;73763;48.936;9.300;2024-01-06T07:39:36;4.00;97.00
83770;DHT22;73763;48.936;9.300;2024-01-06T07:42:01;4.00;96.90
83770;DHT22;73763;48.936;9.300;2024-01-06T07:44:27;4.00;97.00
83770;DHT22;73763;48.936;9.300;2024-01-06T07:46:53;4.00;97.10
83770;DHT22;73763;48.936;9.300;2024-01-06T07:49:18;4.00;97.00
83770;DHT22;73763;48.936;9.300;2024-01-06T07:51:44;4.00;96.90
83770;DHT22;73763;48.936;9.300;2024-01-06T07:54:09;4.00;96.80
83770;DHT22;73763;48.936;9.300;2024-01-06T07:56:35;4.10;96.70
83770;DHT22;73763;48.936;9.300;2024-01-06T07:59:04;4.10;96.70
83770;DHT22;73763;48.936;9.300;2024-01-06T08:01:30;4.10;96.70
83770;DHT22;73763;48.936;9.300;2024-01-06T08:03:55;4.10;96.50
83770;DHT22;73763;48.936;9.300;2024-01-06T08:06:21;4.20;96.20
83770;DHT22;73763;48.936;9.300;2024-01-06T08:08:46;4.30;95.90
83770;DHT22;73763;48.936;9.300;2024-01-06T08:11:12;4.30;95.80
83770;DHT22;73763;48.936;9.300;2024-01-06T08:13:38;4.40;95.80
83770;DHT22;73763;48.936;9.300;2024-01-06T08:16:04;4.40;95.40
83770;DHT22;73763;48.936;9.300;2024-01-06T08:18:30;4.50;95.40
83770;DHT22;73763;48.936;9.300;2024-01-06T08:20:55;4.50;95.30
83770;DHT22;73763;48.936;9.300;2024-01-06T08:23:21;4.50;95.50
83770;DHT22;73763;48.936;9.300;2024-01-06T08:25:46;4.40;95.80
83770;DHT22;73763;48.936;9.300;2024-01-06T08:28:12;4.40;96.00
83770;DHT22;73763;48.936;9.300;2024-01-06T08:30:38;4.40;96.20
83770;DHT22;73763;48.936;9.300;2024-01-06T08:33:03;4.40;96.20
83770;DHT22;73763;48.936;9.300;2024-01-06T08:35:29;4.40;96.10
83770;DHT22;73763;48.936;9.300;2024-01-06T08:37:54;4.40;96.10
83770;DHT22;73763;48.936;9.300;2024-01-06T08:40:20;4.40;96.10
83770;DHT22;73763;48.936;9.300;2024-01-06T08:42:45;4.40;96.20
83770;DHT22;73763;48.936;9.300;2024-01-06T08:45:11;4.50;96.20
83770;DHT22;73763;48.936;9.300;2024-01-06T08:47:37;4.60;96.10
83770;DHT22;73763;48.936;9.300;2024-01-06T08:50:03;4.60;95.80
83770;DHT22;73763;48.936;9.300;2024-01-06T08:52:28;4.70;95.70
83770;DHT22;73763;48.936;9.300;2024-01-06T08:54:54;4.80;95.40
83770;DHT22;73763;48.936;9.300;2024-01-06T08:57:19;4.90;94.90
83770;DHT22;73763;48.936;9.300;2024-01-06T08:59:45;5.00;94.80
83770;DHT22;73763;48.936;9.300;2024-01-06T09:02:11;5.00;94.80
83770;DHT22;73763;48.936;9.300;2024-01-06T09:04:36;5.10;94.40
83770;DHT22;73763;48.936;9.300;2024-01-06T09:07:03;5.20;94.60
83770;DHT22;73763;48.936;9.300;2024-01-06T09:09:28;5.20;94.60
83770;DHT22;73763;48.936;9.300;2024-01-06T09:11:54;5.30;94.90
83770;DHT22;73763;48.936;9.300;2024-01-06T09:14:19;5.30;95.00
83770;DHT22;73763;48.936;9.300;2024-01-06T09:16:45;5.40;94.20
83770;DHT22;73763;48.936;9.300;2024-01-06T09:19:11;5.50;94.20
83770;DHT22;73763;48.936;9.300;2024-01-06T09:21:36;5.60;94.00
83770;DHT22;73763;48.936;9.300;2024-01-06T09:24:02;5.70;93.70
83770;DHT22;73763;48.936;9.300;2024-01-06T09:26:27;5.90;93.90
83770;DHT22;73763;48.936;9.300;2024-01-06T09:28:53;6.10;93.60
83770;DHT22;73763;48.936;9.300;2024-01-06T09:31:18;6.30;93.20
83770;DHT22;73763;48.936;9.300;2024-01-06T09:33:44;6.40;93.30
83770;DHT22;73763;48.936;9.300;2024-01-06T09:36:09;6.40;93.30
83770;DHT22;73763;48.936;9.300;2024-01-06T09:38:35;6.30;93.40
83770;DHT22;73763;48.936;9.300;2024-01-06T09:41:00;6.20;93.90
83770;DHT22;73763;48.936;9.300;2024-01-06T09:43:26;6.10;93.80
83770;DHT22;73763;48.936;9.300;2024-01-06T09:45:58;6.10;94.00
83770;DHT22;73763;48.936;9.300;2024-01-06T09:48:29;5.90;93.80
83770;DHT22;73763;48.936;9.300;2024-01-06T09:50:56;5.80;94.10
83770;DHT22;73763;48.936;9.300;2024-01-06T09:53:23;5.80;94.20
83770;DHT22;73763;48.936;9.300;2024-01-06T09:55:55;5.80;94.50
83770;DHT22;73763;48.936;9.300;2024-01-06T09:58:21;5.80;94.50
83770;DHT22;73763;48.936;9.300;2024-01-06T10:00:48;5.70;94.70
83770;DHT22;73763;48.936;9.300;2024-01-06T10:03:14;5.70;94.80
83770;DHT22;73763;48.936;9.300;2024-01-06T10:05:40;5.60;94.80
83770;DHT22;73763;48.936;9.300;2024-01-06T10:08:06;5.60;95.00
83770;DHT22;73763;48.936;9.300;2024-01-06T10:10:33;5.70;94.60
83770;DHT22;73763;48.936;9.300;2024-01-06T10:12:59;5.70;94.70
83770;DHT22;73763;48.936;9.300;2024-01-06T10:15:25;5.60;95.10
83770;DHT22;73763;48.936;9.300;2024-01-06T10:17:53;5.70;95.00
83770;DHT22;73763;48.936;9.300;2024-01-06T10:20:19;5.60;95.20
83770;DHT22;73763;48.936;9.300;2024-01-06T10:22:45;5.60;95.30
83770;DHT22;73763;48.936;9.300;2024-01-06T10:25:11;5.50;95.50
83770;DHT22;73763;48.936;9.300;2024-01-06T10:27:41;5.40;95.80
83770;DHT22;73763;48.936;9.300;2024-01-06T10:30:07;5.40;95.80
83770;DHT22;73763;48.936;9.300;2024-01-06T10:32:34;5.40;96.10
83770;DHT22;73763;48.936;9.300;2024-01-06T10:35:04;5.40;95.60
83770;DHT22;73763;48.936;9.300;2024-01-06T10:37:30;5.30;95.70
83770;DHT22;73763;48.936;9.300;2024-01-06T10:40:15;5.30;95.30
83770;DHT22;73763;48.936;9.300;2024-01-06T10:42:41;5.30;95.90
83770;DHT22;73763;48.936;9.300;2024-01-06T10:45:12;5.20;96.00
83770;DHT22;73763;48.936;9.300;2024-01-06T10:47:41;5.30;96.00
83770;DHT22;73763;48.936;9.300;2024-01-06T10:50:07;5.30;95.80
83770;DHT22;73763;48.936;9.300;2024-01-06T10:52:33;5.20;96.00
83770;DHT22;73763;48.936;9.300;2024-01-06T10:54:58;5.30;96.00
83770;DHT22;73763;48.936;9.300;2024-01-06T10:57:24;5.20;96.30
83770;DHT22;73763;48.936;9.300;2024-01-06T10:59:51;5.30;96.30
83770;DHT22;73763;48.936;9.300;2024-01-06T11:02:17;5.20;96.10
83770;DHT22;73763;48.936;9.300;2024-01-06T11:04:46;5.30;96.00
83770;DHT22;73763;48.936;9.300;2024-01-06T11:07:18;5.30;96.20
83770;DHT22;73763;48.936;9.300;2024-01-06T11:09:56;5.30;96.50
83770;DHT22;73763;48.936;9.300;2024-01-06T11:12:22;5.30;96.60
83770;DHT22;73763;48.936;9.300;2024-01-06T11:14:48;5.40;96.30
83770;DHT22;73763;48.936;9.300;2024-01-06T11:17:15;5.40;96.40
83770;DHT22;73763;48.936;9.300;2024-01-06T11:20:05;5.50;96.10
83770;DHT22;73763;48.936;9.300;2024-01-06T11:22:31;5.50;95.90
83770;DHT22;73763;48.936;9.300;2024-01-06T11:25:03;5.50;96.20
83770;DHT22;73763;48.936;9.300;2024-01-06T11:27:30;5.50;96.20
83770;DHT22;73763;48.936;9.300;2024-01-06T11:30:00;5.50;96.20
83770;DHT22;73763;48.936;9.300;2024-01-06T11:32:34;5.60;96.50
83770;DHT22;73763;48.936;9.300;2024-01-06T11:35:13;5.60;96.40
83770;DHT22;73763;48.936;9.300;2024-01-06T11:42:36;5.80;96.20
83770;DHT22;73763;48.936;9.300;2024-01-06T11:45:05;5.80;96.30
83770;DHT22;73763;48.936;9.300;2024-01-06T11:47:32;5.80;96.40
83770;DHT22;73763;48.936;9.300;2024-01-06T11:49:59;5.70;96.30
83770;DHT22;73763;48.936;9.300;2024-01-06T11:52:25;5.70;96.50
83770;DHT22;73763;48.936;9.300;2024-01-06T11:54:52;5.70;96.60
83770;DHT22;73763;48.936;9.300;2024-01-06T11:57:19;5.70;96.70
83770;DHT22;73763;48.936;9.300;2024-01-06T11:59:44;5.70;96.60
83770;DHT22;73763;48.936;9.300;2024-01-06T12:02:13;5.70;96.60
83770;DHT22;73763;48.936;9.300;2024-01-06T12:04:39;5.70;96.50
83770;DHT22;73763;48.936;9.300;2024-01-06T12:07:09;5.70;96.70
83770;DHT22;73763;48.936;9.300;2024-01-06T12:09:34;5.70;96.80
83770;DHT22;73763;48.936;9.300;2024-01-06T12:12:04;5.70;96.50
83770;DHT22;73763;48.936;9.300;2024-01-06T12:14:30;5.70;96.50
83770;DHT22;73763;48.936;9.300;2024-01-06T12:16:56;5.70;96.70
83770;DHT22;73763;48.936;9.300;2024-01-06T12:19:21;5.80;96.50
83770;DHT22;73763;48.936;9.300;2024-01-06T12:21:47;5.80;96.10
83770;DHT22;73763;48.936;9.300;2024-01-06T12:24:16;5.70;95.70
83770;DHT22;73763;48.936;9.300;2024-01-06T12:26:44;5.70;96.10
83770;DHT22;73763;48.936;9.300;2024-01-06T12:29:09;5.80;96.50
83770;DHT22;73763;48.936;9.300;2024-01-06T12:31:35;5.80;96.50
83770;DHT22;73763;48.936;9.300;2024-01-06T12:34:01;5.70;96.00
83770;DHT22;73763;48.936;9.300;2024-01-06T12:36:26;5.70;96.10
83770;DHT22;73763;48.936;9.300;2024-01-06T12:38:52;5.70;96.00
83770;DHT22;73763;48.936;9.300;2024-01-06T12:41:17;5.70;95.90
83770;DHT22;73763;48.936;9.300;2024-01-06T12:43:43;5.80;96.30
83770;DHT22;73763;48.936;9.300;2024-01-06T12:46:08;5.80;96.50
83770;DHT22;73763;48.936;9.300;2024-01-06T12:48:34;5.80;96.20
83770;DHT22;73763;48.936;9.300;2024-01-06T12:50:59;5.90;96.00
83770;DHT22;73763;48.936;9.300;2024-01-06T12:53:25;5.90;96.60
83770;DHT22;73763;48.936;9.300;2024-01-06T12:55:50;6.00;96.20
83770;DHT22;73763;48.936;9.300;2024-01-06T12:58:16;6.00;96.00
83770;DHT22;73763;48.936;9.300;2024-01-06T13:00:41;6.00;95.90
83770;DHT22;73763;48.936;9.300;2024-01-06T13:03:08;6.00;95.80
83770;DHT22;73763;48.936;9.300;2024-01-06T13:05:34;6.10;95.90
83770;DHT22;73763;48.936;9.300;2024-01-06T13:07:59;6.10;95.70
83770;DHT22;73763;48.936;9.300;2024-01-06T13:10:25;6.10;95.70
83770;DHT22;73763;48.936;9.300;2024-01-06T13:12:50;6.10;95.70
83770;DHT22;73763;48.936;9.300;2024-01-06T13:15:16;6.10;95.50
83770;DHT22;73763;48.936;9.300;2024-01-06T13:17:41;6.00;95.70
83770;DHT22;73763;48.936;9.300;2024-01-06T13:20:07;6.00;95.50
83770;DHT22;73763;48.936;9.300;2024-01-06T13:22:33;6.00;95.90
83770;DHT22;73763;48.936;9.300;2024-01-06T13:24:59;5.90;95.70
83770;DHT22;73763;48.936;9.300;2024-01-06T13:27:25;5.90;95.80
83770;DHT22;73763;48.936;9.300;2024-01-06T13:29:51;5.80;95.70
83770;DHT22;73763;48.936;9.300;2024-01-06T13:32:16;5.80;95.90
83770;DHT22;73763;48.936;9.300;2024-01-06T13:34:42;5.70;96.10
83770;DHT22;73763;48.936;9.300;2024-01-06T13:37:08;5.70;96.10
83770;DHT22;73763;48.936;9.300;2024-01-06T13:39:33;5.70;96.20
83770;DHT22;73763;48.936;9.300;2024-01-06T13:41:59;5.70;96.30
83770;DHT22;73763;48.936;9.300;2024-01-06T13:44:24;5.70;96.40
83770;DHT22;73763;48.936;9.300;2024-01-06T13:46:50;5.80;96.60
83770;DHT22;73763;48.936;9.300;2024-01-06T13:49:15;5.80;96.50
83770;DHT22;73763;48.936;9.300;2024-01-06T13:51:41;5.70;96.60
83770;DHT22;73763;48.936;9.300;2024-01-06T13:54:07;5.70;96.60
83770;DHT22;73763;48.936;9.300;2024-01-06T13:56:33;5.70;96.40
83770;DHT22;73763;48.936;9.300;2024-01-06T13:58:58;5.70;96.40
83770;DHT22;73763;48.936;9.300;2024-01-06T14:01:24;5.70;96.50
83770;DHT22;73763;48.936;9.300;2024-01-06T14:03:50;5.80;96.60
83770;DHT22;73763;48.936;9.300;2024-01-06T14:06:16;5.70;96.50
83770;DHT22;73763;48.936;9.300;2024-01-06T14:08:41;5.70;96.40
83770;DHT22;73763;48.936;9.300;2024-01-06T14:11:07;5.70;96.30
83770;DHT22;73763;48.936;9.300;2024-01-06T14:13:32;5.70;96.30
83770;DHT22;73763;48.936;9.300;2024-01-06T14:15:58;5.60;96.50
83770;DHT22;73763;48.936;9.300;2024-01-06T14:18:23;5.60;96.70
83770;DHT22;73763;48.936;9.300;2024-01-06T14:20:49;5.60;96.80
83770;DHT22;73763;48.936;9.300;2024-01-06T14:23:14;5.60;96.70
83770;DHT22;73763;48.936;9.300;2024-01-06T14:25:40;5.60;96.80
83770;DHT22;73763;48.936;9.300;2024-01-06T14:28:05;5.60;96.90
83770;DHT22;73763;48.936;9.300;2024-01-06T14:30:31;5.60;96.80
83770;DHT22;73763;48.936;9.300;2024-01-06T14:32:57;5.60;96.70
83770;DHT22;73763;48.936;9.300;2024-01-06T14:35:22;5.60;96.70
83770;DHT22;73763;48.936;9.300;2024-01-06T14:37:48;5.70;96.60
83770;DHT22;73763;48.936;9.300;2024-01-06T14:40:13;5.70;96.50
83770;DHT22;73763;48.936;9.300;2024-01-06T14:42:39;5.70;96.50
83770;DHT22;73763;48.936;9.300;2024-01-06T14:45:05;5.60;96.70
83770;DHT22;73763;48.936;9.300;2024-01-06T14:47:30;5.60;96.70
83770;DHT22;73763;48.936;9.300;2024-01-06T14:49:56;5.60;96.60
83770;DHT22;73763;48.936;9.300;2024-01-06T14:52:21;5.60;96.70
83770;DHT22;73763;48.936;9.300;2024-01-06T14:54:47;5.50;96.70
83770;DHT22;73763;48.936;9.300;2024-01-06T14:57:12;5.50;96.80
83770;DHT22;73763;48.936;9.300;2024-01-06T14:59:38;5.50;96.80
83770;DHT22;73763;48.936;9.300;2024-01-06T15:02:03;5.50;96.90
83770;DHT22;73763;48.936;9.300;2024-01-06T15:04:29;5.50;96.90
83770;DHT22;73763;48.936;9.300;2024-01-06T15:06:55;5.50;97.00
83770;DHT22;73763;48.936;9.300;2024-01-06T15:09:21;5.50;96.90
83770;DHT22;73763;48.936;9.300;2024-01-06T15:11:46;5.50;96.90
83770;DHT22;73763;48.936;9.300;2024-01-06T15:14:12;5.50;96.90
83770;DHT22;73763;48.936;9.300;2024-01-06T15:16:38;5.50;96.90
83770;DHT22;73763;48.936;9.300;2024-01-06T15:19:03;5.50;97.10
83770;DHT22;73763;48.936;9.300;2024-01-06T15:21:29;5.50;97.10
83770;DHT22;73763;48.936;9.300;2024-01-06T15:23:55;5.50;97.00
83770;DHT22;73763;48.936;9.300;2024-01-06T15:26:27;5.40;97.10
83770;DHT22;73763;48.936;9.300;2024-01-06T15:28:52;5.30;97.20
83770;DHT22;73763;48.936;9.300;2024-01-06T15:31:18;5.40;97.30
83770;DHT22;73763;48.936;9.300;2024-01-06T15:33:43;5.40;97.30
83770;DHT22;73763;48.936;9.300;2024-01-06T15:36:09;5.40;97.40
83770;DHT22;73763;48.936;9.300;2024-01-06T15:38:35;5.30;97.40
83770;DHT22;73763;48.936;9.300;2024-01-06T15:41:00;5.30;97.60